createdAt,value
2022-11-01T00:01:54.770Z,98511.00
2022-11-01T00:04:23.070Z,98508.66
2022-11-01T00:06:51.478Z,98509.91
2022-11-01T00:09:19.846Z,98509.34
2022-11-01T00:11:49.523Z,98503.31
2022-11-01T00:14:19.360Z,98502.53
2022-11-01T00:16:47.697Z,98499.72
2022-11-01T00:19:16.044Z,98501.66
2022-11-01T00:21:43.968Z,98502.41
2022-11-01T00:24:12.292Z,98497.13
2022-11-01T00:26:40.497Z,98499.63
2022-11-01T00:29:09.925Z,98488.28
2022-11-01T00:31:37.862Z,98492.09
2022-11-01T00:34:06.930Z,98497.69
2022-11-01T00:36:35.462Z,98490.13
2022-11-01T00:39:04.353Z,98492.91
2022-11-01T00:41:32.475Z,98485.09
2022-11-01T00:44:00.577Z,98481.50
2022-11-01T00:46:30.671Z,98492.09
2022-11-01T00:48:58.639Z,98483.00
2022-11-01T00:51:27.080Z,98489.50
2022-11-01T00:53:54.983Z,98478.16
2022-11-01T00:56:22.936Z,98486.78
2022-11-01T00:58:50.881Z,98487.09
2022-11-01T01:01:18.963Z,98483.34
2022-11-01T01:03:48.372Z,98474.13
2022-11-01T01:06:16.324Z,98482.44
2022-11-01T01:08:44.456Z,98477.97
2022-11-01T01:11:12.442Z,98473.19
2022-11-01T01:13:40.481Z,98461.84
2022-11-01T01:16:09.935Z,98456.81
2022-11-01T01:18:38.670Z,98449.28
2022-11-01T01:21:08.593Z,98442.94
2022-11-01T01:23:36.959Z,98450.44
2022-11-01T01:26:07.480Z,98445.00
2022-11-01T01:28:40.117Z,98447.19
2022-11-01T01:31:12.812Z,98438.88
2022-11-01T01:33:40.809Z,98442.75
2022-11-01T01:36:10.522Z,98435.19
2022-11-01T01:38:38.526Z,98435.03
2022-11-01T01:41:24.177Z,98439.25
2022-11-01T01:43:52.392Z,98434.53
2022-11-01T01:46:20.446Z,98435.97
2022-11-01T01:48:54.540Z,98434.59
2022-11-01T01:51:28.808Z,98430.09
2022-11-01T01:53:58.449Z,98432.13
2022-11-01T01:56:32.684Z,98427.06
2022-11-01T01:59:05.277Z,98435.94
2022-11-01T02:01:35.332Z,98430.91
2022-11-01T02:04:04.724Z,98438.47
2022-11-01T02:06:36.652Z,98435.44
2022-11-01T02:09:07.866Z,98434.44
2022-11-01T02:11:36.375Z,98430.91
2022-11-01T02:14:04.919Z,98433.94
2022-11-01T02:16:48.345Z,98432.19
2022-11-01T02:20:04.555Z,98415.03
2022-11-01T02:22:52.096Z,98421.03
2022-11-01T02:25:36.793Z,98431.81
2022-11-01T02:28:23.459Z,98429.91
2022-11-01T02:31:04.690Z,98424.06
2022-11-01T02:33:40.457Z,98424.22
2022-11-01T02:36:15.997Z,98418.84
2022-11-01T02:38:50.086Z,98423.88
2022-11-01T02:41:23.302Z,98424.94
2022-11-01T02:43:56.071Z,98427.97
2022-11-01T02:46:43.361Z,98428.72
2022-11-01T02:49:16.887Z,98423.69
2022-11-01T02:51:46.405Z,98419.13
2022-11-01T02:54:21.876Z,98417.09
2022-11-01T02:56:50.475Z,98412.56
2022-11-01T02:59:25.049Z,98410.88
2022-11-01T03:02:00.301Z,98420.44
2022-11-01T03:04:29.735Z,98418.84
2022-11-01T03:07:01.694Z,98427.16
2022-11-01T03:09:30.394Z,98434.28
2022-11-01T03:12:03.318Z,98422.31
2022-11-01T03:14:39.723Z,98418.47
2022-11-01T03:17:12.533Z,98411.81
2022-11-01T03:19:48.975Z,98410.75
2022-11-01T03:22:21.339Z,98413.41
2022-11-01T03:24:53.322Z,98407.72
2022-11-01T03:27:27.787Z,98406.22
2022-11-01T03:30:03.070Z,98414.78
2022-11-01T03:32:37.513Z,98412.31
2022-11-01T03:35:11.555Z,98400.19
2022-11-01T03:37:42.209Z,98400.91
2022-11-01T03:40:14.163Z,98406.91
2022-11-01T03:42:44.877Z,98410.16
2022-11-01T03:45:15.809Z,98415.91
2022-11-01T03:47:44.200Z,98415.97
2022-11-01T03:50:17.632Z,98403.69
2022-11-01T03:52:45.940Z,98410.25
2022-11-01T03:55:20.581Z,98416.38
2022-11-01T03:57:50.033Z,98429.28
2022-11-01T04:00:20.394Z,98425.75
2022-11-01T04:02:48.495Z,98427.81
2022-11-01T04:05:18.527Z,98439.44
2022-11-01T04:07:46.721Z,98427.78
2022-11-01T04:10:15.659Z,98414.38
2022-11-01T04:12:46.936Z,98413.44
2022-11-01T04:15:32.932Z,98415.03
2022-11-01T04:18:23.444Z,98422.75
2022-11-01T04:20:54.173Z,98411.66
2022-11-01T04:23:22.264Z,98404.66
2022-11-01T04:25:50.423Z,98398.91
2022-11-01T04:28:18.400Z,98389.75
2022-11-01T04:30:46.373Z,98402.44
2022-11-01T04:33:14.380Z,98409.13
2022-11-01T04:35:42.497Z,98399.81
2022-11-01T04:38:13.025Z,98397.44
2022-11-01T04:40:41.652Z,98400.91
2022-11-01T04:43:09.703Z,98399.59
2022-11-01T04:45:37.643Z,98399.03
2022-11-01T04:48:07.322Z,98406.47
2022-11-01T04:50:36.497Z,98397.41
2022-11-01T04:53:04.805Z,98399.84
2022-11-01T04:55:34.853Z,98393.53
2022-11-01T04:58:03.234Z,98391.91
2022-11-01T05:00:33.123Z,98390.31
2022-11-01T05:03:03.867Z,98379.56
2022-11-01T05:05:32.424Z,98376.38
2022-11-01T05:10:37.573Z,98369.09
2022-11-01T05:13:06.492Z,98376.56
2022-11-01T05:15:40.087Z,98376.81
2022-11-01T05:18:11.869Z,98380.09
2022-11-01T05:20:39.836Z,98383.03
2022-11-01T05:23:07.883Z,98378.84
2022-11-01T05:25:38.368Z,98383.19
2022-11-01T05:28:08.792Z,98382.81
2022-11-01T05:30:38.259Z,98383.91
2022-11-01T05:33:07.686Z,98376.75
2022-11-01T05:35:37.166Z,98376.88
2022-11-01T05:38:06.134Z,98376.47
2022-11-01T05:40:34.250Z,98375.41
2022-11-01T05:43:04.186Z,98382.25
2022-11-01T05:45:32.620Z,98381.19
2022-11-01T05:48:03.589Z,98375.69
2022-11-01T05:50:31.976Z,98374.38
2022-11-01T05:53:08.492Z,98384.06
2022-11-01T05:55:37.159Z,98368.94
2022-11-01T05:58:07.401Z,98371.25
2022-11-01T06:00:35.979Z,98361.72
2022-11-01T06:03:04.765Z,98368.09
2022-11-01T06:05:33.835Z,98367.06
2022-11-01T06:08:03.117Z,98367.88
2022-11-01T06:10:31.324Z,98370.06
2022-11-01T06:12:59.604Z,98370.09
2022-11-01T06:15:29.321Z,98372.25
2022-11-01T06:17:58.436Z,98380.94
2022-11-01T06:20:26.974Z,98386.84
2022-11-01T06:22:55.111Z,98385.16
2022-11-01T06:25:23.853Z,98400.03
2022-11-01T06:27:51.767Z,98391.59
2022-11-01T06:30:19.908Z,98387.25
2022-11-01T06:32:49.269Z,98382.94
2022-11-01T06:35:17.562Z,98382.88
2022-11-01T06:37:46.813Z,98387.56
2022-11-01T06:40:14.793Z,98387.34
2022-11-01T06:42:46.569Z,98380.94
2022-11-01T06:45:15.034Z,98394.94
2022-11-01T06:47:49.047Z,98395.84
2022-11-01T06:50:17.097Z,98407.69
2022-11-01T06:52:45.026Z,98407.09
2022-11-01T06:55:12.984Z,98411.25
2022-11-01T06:57:41.084Z,98411.44
2022-11-01T07:00:10.317Z,98419.75
2022-11-01T07:02:38.332Z,98422.75
2022-11-01T07:05:08.865Z,98421.63
2022-11-01T07:07:36.939Z,98432.34
2022-11-01T07:10:05.513Z,98428.28
2022-11-01T07:12:33.439Z,98414.31
2022-11-01T07:15:01.450Z,98424.53
2022-11-01T07:17:29.419Z,98409.31
2022-11-01T07:19:57.501Z,98414.97
2022-11-01T07:22:26.833Z,98432.63
2022-11-01T07:24:54.809Z,98417.38
2022-11-01T07:27:22.851Z,98411.06
2022-11-01T07:29:50.767Z,98401.81
2022-11-01T07:32:18.728Z,98394.84
2022-11-01T07:34:46.635Z,98390.97
2022-11-01T07:37:14.658Z,98414.06
2022-11-01T07:39:44.022Z,98418.81
2022-11-01T07:42:12.069Z,98427.53
2022-11-01T07:44:39.999Z,98417.38
2022-11-01T07:47:08.027Z,98410.72
2022-11-01T07:49:35.997Z,98402.56
2022-11-01T07:52:04.291Z,98410.00
2022-11-01T07:54:32.218Z,98404.34
2022-11-01T07:57:01.548Z,98399.09
2022-11-01T07:59:29.621Z,98391.88
2022-11-01T08:01:57.606Z,98391.28
2022-11-01T08:04:25.588Z,98408.41
2022-11-01T08:06:53.579Z,98404.41
2022-11-01T08:09:23.049Z,98418.41
2022-11-01T08:11:51.547Z,98407.44
2022-11-01T08:14:20.856Z,98420.31
2022-11-01T08:16:50.220Z,98422.28
2022-11-01T08:19:18.186Z,98422.56
2022-11-01T08:21:46.136Z,98417.13
2022-11-01T08:24:14.150Z,98421.34
2022-11-01T08:26:42.104Z,98417.88
2022-11-01T08:29:10.105Z,98418.31
2022-11-01T08:31:42.168Z,98413.69
2022-11-01T08:34:14.552Z,98411.84
2022-11-01T08:36:44.701Z,98418.16
2022-11-01T08:39:13.023Z,98396.91
2022-11-01T08:41:40.935Z,98407.59
2022-11-01T08:44:09.551Z,98391.78
2022-11-01T08:46:37.586Z,98392.53
2022-11-01T08:49:06.896Z,98389.56
2022-11-01T08:51:35.110Z,98387.44
2022-11-01T08:54:05.159Z,98384.81
2022-11-01T08:56:33.254Z,98385.09
2022-11-01T08:59:01.351Z,98388.69
2022-11-01T09:01:29.455Z,98401.41
2022-11-01T09:03:58.473Z,98397.31
2022-11-01T09:06:33.678Z,98404.47
2022-11-01T09:09:04.337Z,98401.66
2022-11-01T09:11:32.328Z,98396.44
2022-11-01T09:14:01.315Z,98407.66
2022-11-01T09:16:29.478Z,98407.72
2022-11-01T09:19:01.615Z,98406.78
2022-11-01T09:21:32.203Z,98417.94
2022-11-01T09:24:00.447Z,98421.84
2022-11-01T09:26:28.510Z,98418.88
2022-11-01T09:28:58.583Z,98412.56
2022-11-01T09:31:28.612Z,98408.53
2022-11-01T09:33:57.515Z,98411.69
2022-11-01T09:36:26.615Z,98417.81
2022-11-01T09:38:56.318Z,98408.25
2022-11-01T09:41:32.876Z,98412.94
2022-11-01T09:44:04.321Z,98426.47
2022-11-01T09:46:37.497Z,98417.25
2022-11-01T09:49:07.213Z,98411.69
2022-11-01T09:51:35.337Z,98400.88
2022-11-01T09:54:04.770Z,98405.38
2022-11-01T09:56:41.691Z,98418.09
2022-11-01T09:59:22.223Z,98416.00
2022-11-01T10:02:05.827Z,98403.31
2022-11-01T10:04:59.375Z,98386.00
2022-11-01T10:07:37.910Z,98384.81
2022-11-01T10:10:18.931Z,98391.88
2022-11-01T10:12:59.375Z,98393.41
2022-11-01T10:15:39.597Z,98395.66
2022-11-01T10:18:20.806Z,98382.94
2022-11-01T10:20:49.556Z,98396.91
2022-11-01T10:23:19.956Z,98406.03
2022-11-01T10:25:54.804Z,98402.72
2022-11-01T10:28:31.470Z,98401.75
2022-11-01T10:31:04.472Z,98391.84
2022-11-01T10:33:36.234Z,98398.97
2022-11-01T10:36:07.402Z,98405.50
2022-11-01T10:41:36.894Z,98408.13
2022-11-01T10:44:12.187Z,98413.72
2022-11-01T10:46:43.708Z,98411.72
2022-11-01T10:49:24.402Z,98407.25
2022-11-01T10:51:56.416Z,98403.44
2022-11-01T10:54:29.563Z,98388.78
2022-11-01T10:57:03.828Z,98387.97
2022-11-01T10:59:36.650Z,98395.75
2022-11-01T11:02:14.438Z,98390.38
2022-11-01T11:04:43.068Z,98386.19
2022-11-01T11:07:16.487Z,98377.06
2022-11-01T11:09:50.245Z,98385.25
2022-11-01T11:12:22.451Z,98382.38
2022-11-01T11:14:54.519Z,98370.03
2022-11-01T11:17:26.075Z,98368.75
2022-11-01T11:19:54.333Z,98364.81
2022-11-01T11:22:23.436Z,98371.19
2022-11-01T11:24:52.870Z,98374.78
2022-11-01T11:27:25.076Z,98374.41
2022-11-01T11:29:56.493Z,98372.56
2022-11-01T11:32:27.005Z,98366.69
2022-11-01T11:34:58.414Z,98367.03
2022-11-01T11:37:30.144Z,98366.28
2022-11-01T11:40:20.852Z,98366.47
2022-11-01T11:42:51.957Z,98374.22
2022-11-01T11:45:29.526Z,98364.28
2022-11-01T11:47:58.740Z,98359.13
2022-11-01T11:50:33.488Z,98358.19
2022-11-01T11:53:10.069Z,98357.16
2022-11-01T11:55:43.747Z,98362.53
2022-11-01T11:58:24.355Z,98362.06
2022-11-01T12:00:59.891Z,98357.91
2022-11-01T12:03:29.118Z,98360.00
2022-11-01T12:06:06.762Z,98359.81
2022-11-01T12:08:44.981Z,98357.06
2022-11-01T12:11:13.573Z,98348.81
2022-11-01T12:13:45.286Z,98353.03
2022-11-01T12:16:22.359Z,98349.97
2022-11-01T12:18:53.385Z,98342.84
2022-11-01T12:21:27.876Z,98345.47
2022-11-01T12:24:00.796Z,98352.25
2022-11-01T12:26:31.852Z,98348.13
2022-11-01T12:29:07.797Z,98348.66
2022-11-01T12:31:37.012Z,98348.66
2022-11-01T12:34:12.867Z,98337.66
2022-11-01T12:36:46.307Z,98336.09
2022-11-01T12:39:30.391Z,98338.19
2022-11-01T12:41:59.480Z,98346.66
2022-11-01T12:44:35.899Z,98345.34
2022-11-01T12:47:09.247Z,98339.84
2022-11-01T12:49:45.523Z,98341.03
2022-11-01T12:52:20.259Z,98345.06
2022-11-01T12:55:04.288Z,98342.56
2022-11-01T12:57:33.301Z,98340.31
2022-11-01T13:00:04.413Z,98350.69
2022-11-01T13:03:07.810Z,98344.78
2022-11-01T13:05:48.839Z,98355.91
2022-11-01T13:08:24.331Z,98344.03
2022-11-01T13:10:52.914Z,98352.38
2022-11-01T13:13:26.943Z,98353.03
2022-11-01T13:16:04.358Z,98344.41
2022-11-01T13:18:45.043Z,98334.44
2022-11-01T13:21:19.912Z,98344.47
2022-11-01T13:23:53.984Z,98349.81
2022-11-01T13:26:26.718Z,98348.25
2022-11-01T13:29:04.086Z,98345.38
2022-11-01T13:31:44.889Z,98351.00
2022-11-01T13:34:27.428Z,98348.06
2022-11-01T13:37:01.771Z,98348.25
2022-11-01T13:39:38.425Z,98349.75
2022-11-01T13:42:12.626Z,98356.16
2022-11-01T13:44:45.178Z,98355.22
2022-11-01T13:47:47.202Z,98357.28
2022-11-01T13:50:41.246Z,98368.88
2022-11-01T13:53:17.394Z,98374.94
2022-11-01T13:55:50.881Z,98385.00
2022-11-01T13:58:20.188Z,98383.25
2022-11-01T14:00:50.532Z,98376.69
2022-11-01T14:03:24.351Z,98373.69
2022-11-01T14:09:37.600Z,98386.34
2022-11-01T14:12:28.720Z,98381.78
2022-11-01T14:15:11.762Z,98386.13
2022-11-01T14:18:07.455Z,98389.69
2022-11-01T14:20:51.649Z,98388.41
2022-11-01T14:24:00.544Z,98378.50
2022-11-01T14:26:50.809Z,98379.28
2022-11-01T14:29:19.243Z,98392.34
2022-11-01T14:31:49.640Z,98394.03
2022-11-01T14:34:31.885Z,98386.56
2022-11-01T14:37:11.516Z,98394.22
2022-11-01T14:39:44.703Z,98396.00
2022-11-01T14:42:19.809Z,98399.53
2022-11-01T14:44:52.686Z,98406.59
2022-11-01T14:47:31.874Z,98403.56
2022-11-01T14:50:04.000Z,98407.59
2022-11-01T14:52:40.848Z,98403.38
2022-11-01T14:55:18.361Z,98406.91
2022-11-01T14:57:48.511Z,98422.56
2022-11-01T15:00:23.097Z,98411.25
2022-11-01T15:02:51.881Z,98416.59
2022-11-01T15:05:19.965Z,98415.28
2022-11-01T15:07:54.117Z,98426.50
2022-11-01T15:10:23.046Z,98410.75
2022-11-01T15:12:54.159Z,98412.09
2022-11-01T15:15:24.422Z,98413.81
2022-11-01T15:17:55.631Z,98411.09
2022-11-01T15:20:27.500Z,98414.84
2022-11-01T15:22:58.568Z,98415.63
2022-11-01T15:25:27.973Z,98419.66
2022-11-01T15:27:58.170Z,98415.63
2022-11-01T15:30:28.516Z,98424.59
2022-11-01T15:33:15.230Z,98426.34
2022-11-01T15:35:43.829Z,98426.53
2022-11-01T15:38:20.842Z,98439.38
2022-11-01T15:40:50.457Z,98443.13
2022-11-01T15:43:21.086Z,98440.75
2022-11-01T15:45:53.702Z,98443.25
2022-11-01T15:48:24.678Z,98444.06
2022-11-01T15:50:56.805Z,98447.41
2022-11-01T15:53:29.299Z,98439.66
2022-11-01T15:56:02.634Z,98451.28
2022-11-01T15:58:35.109Z,98449.06
2022-11-01T16:01:10.458Z,98448.22
2022-11-01T16:03:43.056Z,98456.03
2022-11-01T16:06:15.786Z,98459.00
2022-11-01T16:08:52.426Z,98469.00
2022-11-01T16:11:23.494Z,98461.16
2022-11-01T16:13:57.236Z,98461.78
2022-11-01T16:16:25.385Z,98468.84
2022-11-01T16:18:54.957Z,98468.28
2022-11-01T16:21:29.669Z,98482.09
2022-11-01T16:24:11.522Z,98474.88
2022-11-01T16:26:53.840Z,98482.75
2022-11-01T16:29:41.275Z,98484.94
2022-11-01T16:32:19.301Z,98487.91
2022-11-01T16:34:47.879Z,98496.63
2022-11-01T16:37:23.798Z,98482.84
2022-11-01T16:39:53.813Z,98489.31
2022-11-01T16:42:23.072Z,98476.25
2022-11-01T16:44:56.076Z,98490.81
2022-11-01T16:47:24.615Z,98495.94
2022-11-01T16:49:55.105Z,98496.59
2022-11-01T16:52:23.349Z,98505.91
2022-11-01T16:54:52.083Z,98496.25
2022-11-01T16:57:26.177Z,98500.09
2022-11-01T16:59:55.592Z,98508.94
2022-11-01T17:02:26.778Z,98505.03
2022-11-01T17:04:58.586Z,98499.75
2022-11-01T17:07:27.681Z,98509.59
2022-11-01T17:09:57.961Z,98503.00
2022-11-01T17:12:27.443Z,98521.47
2022-11-01T17:14:56.121Z,98509.78
2022-11-01T17:17:27.447Z,98525.00
2022-11-01T17:19:59.669Z,98517.41
2022-11-01T17:22:35.243Z,98517.44
2022-11-01T17:25:04.314Z,98522.25
2022-11-01T17:27:33.882Z,98521.41
2022-11-01T17:30:03.338Z,98524.75
2022-11-01T17:32:31.360Z,98522.09
2022-11-01T17:35:00.282Z,98519.72
2022-11-01T17:37:32.252Z,98528.38
2022-11-01T17:40:01.955Z,98537.94
2022-11-01T17:42:29.991Z,98537.44
2022-11-01T17:44:59.545Z,98536.59
2022-11-01T17:47:27.497Z,98538.94
2022-11-01T17:49:55.557Z,98528.94
2022-11-01T17:52:23.632Z,98533.06
2022-11-01T17:54:51.697Z,98534.06
2022-11-01T17:57:19.715Z,98538.22
2022-11-01T17:59:47.694Z,98545.84
2022-11-01T18:02:17.188Z,98537.03
2022-11-01T18:04:45.626Z,98533.00
2022-11-01T18:07:13.813Z,98539.50
2022-11-01T18:09:41.844Z,98539.94
2022-11-01T18:12:15.257Z,98541.91
2022-11-01T18:17:38.875Z,98553.44
2022-11-01T18:20:16.342Z,98557.44
2022-11-01T18:22:50.478Z,98557.19
2022-11-01T18:25:28.262Z,98559.72
2022-11-01T18:28:00.250Z,98550.91
2022-11-01T18:30:29.280Z,98556.00
2022-11-01T18:33:04.097Z,98547.34
2022-11-01T18:35:37.572Z,98553.69
2022-11-01T18:38:25.961Z,98558.63
2022-11-01T18:41:00.336Z,98565.63
2022-11-01T18:43:32.025Z,98556.97
2022-11-01T18:48:49.809Z,98566.91
2022-11-01T18:51:23.005Z,98559.53
2022-11-01T18:53:55.926Z,98564.53
2022-11-01T18:56:25.730Z,98575.09
2022-11-01T18:58:55.384Z,98578.19
2022-11-01T19:01:31.934Z,98564.88
2022-11-01T19:04:07.595Z,98583.78
2022-11-01T19:06:35.748Z,98578.47
2022-11-01T19:09:24.211Z,98577.38
2022-11-01T19:11:58.364Z,98577.84
2022-11-01T19:14:27.399Z,98568.59
2022-11-01T19:16:56.497Z,98570.84
2022-11-01T19:19:26.038Z,98573.97
2022-11-01T19:21:59.600Z,98574.59
2022-11-01T19:24:33.422Z,98573.34
2022-11-01T19:27:03.084Z,98579.84
2022-11-01T19:29:35.057Z,98585.50
2022-11-01T19:32:05.547Z,98588.00
2022-11-01T19:34:38.721Z,98586.81
2022-11-01T19:37:20.956Z,98586.34
2022-11-01T19:39:49.597Z,98593.00
2022-11-01T19:42:26.304Z,98578.41
2022-11-01T19:44:58.204Z,98587.22
2022-11-01T19:47:40.361Z,98598.88
2022-11-01T19:50:28.812Z,98601.84
2022-11-01T19:52:59.020Z,98599.75
2022-11-01T19:55:38.334Z,98597.84
2022-11-01T19:58:26.321Z,98608.75
2022-11-01T20:01:04.450Z,98610.69
2022-11-01T20:03:39.479Z,98610.56
2022-11-01T20:06:16.093Z,98606.47
2022-11-01T20:08:45.388Z,98619.09
2022-11-01T20:11:13.607Z,98623.66
2022-11-01T20:13:41.808Z,98616.78
2022-11-01T20:16:09.942Z,98609.09
2022-11-01T20:18:37.969Z,98623.66
2022-11-01T20:21:06.396Z,98631.53
2022-11-01T20:23:36.355Z,98633.50
2022-11-01T20:26:04.955Z,98638.06
2022-11-01T20:28:33.605Z,98636.81
2022-11-01T20:31:01.598Z,98637.88
2022-11-01T20:33:29.679Z,98625.44
2022-11-01T20:35:57.734Z,98633.25
2022-11-01T20:38:25.790Z,98630.97
2022-11-01T20:40:55.200Z,98640.44
2022-11-01T20:43:24.040Z,98638.34
2022-11-01T20:45:52.132Z,98647.31
2022-11-01T20:48:20.516Z,98650.63
2022-11-01T20:50:48.609Z,98653.25
2022-11-01T20:53:16.916Z,98653.97
2022-11-01T20:55:45.303Z,98644.75
2022-11-01T20:58:15.130Z,98644.34
2022-11-01T21:00:43.171Z,98647.31
2022-11-01T21:03:15.639Z,98650.00
2022-11-01T21:05:44.764Z,98652.91
2022-11-01T21:08:22.428Z,98658.72
2022-11-01T21:10:56.432Z,98647.72
2022-11-01T21:13:28.329Z,98644.75
2022-11-01T21:15:58.023Z,98664.00
2022-11-01T21:18:33.828Z,98652.84
2022-11-01T21:21:31.643Z,98657.31
2022-11-01T21:24:01.291Z,98663.03
2022-11-01T21:26:32.652Z,98657.59
2022-11-01T21:29:16.598Z,98664.81
2022-11-01T21:31:44.580Z,98664.88
2022-11-01T21:34:24.272Z,98668.19
2022-11-01T21:36:52.628Z,98666.59
2022-11-01T21:39:22.697Z,98666.41
2022-11-01T21:41:52.633Z,98671.19
2022-11-01T21:44:25.965Z,98668.03
2022-11-01T21:46:56.164Z,98669.19
2022-11-01T21:49:27.669Z,98674.81
2022-11-01T21:51:58.850Z,98675.13
2022-11-01T21:54:34.043Z,98674.66
2022-11-01T21:57:02.928Z,98683.56
2022-11-01T21:59:32.843Z,98674.56
2022-11-01T22:02:02.066Z,98671.53
2022-11-01T22:04:31.586Z,98681.13
2022-11-01T22:07:00.736Z,98681.41
2022-11-01T22:09:29.161Z,98668.63
2022-11-01T22:11:57.538Z,98668.72
2022-11-01T22:14:25.940Z,98666.38
2022-11-01T22:16:55.449Z,98681.97
2022-11-01T22:19:23.535Z,98675.44
2022-11-01T22:21:51.559Z,98679.50
2022-11-01T22:24:19.671Z,98665.59
2022-11-01T22:26:47.608Z,98664.34
2022-11-01T22:29:15.647Z,98669.69
2022-11-01T22:31:43.815Z,98672.75
2022-11-01T22:34:13.514Z,98664.31
2022-11-01T22:36:43.264Z,98671.72
2022-11-01T22:39:18.143Z,98674.47
2022-11-01T22:41:46.247Z,98679.09
2022-11-01T22:44:16.055Z,98675.72
2022-11-01T22:46:47.312Z,98676.50
2022-11-01T22:49:23.609Z,98674.97
2022-11-01T22:51:54.434Z,98674.34
2022-11-01T22:54:30.799Z,98680.34
2022-11-01T22:57:02.848Z,98672.75
2022-11-01T22:59:34.152Z,98678.75
2022-11-01T23:02:24.879Z,98681.69
2022-11-01T23:04:59.221Z,98673.63
2022-11-01T23:07:39.015Z,98675.84
2022-11-01T23:10:21.855Z,98673.78
2022-11-01T23:13:09.633Z,98675.63
2022-11-01T23:15:37.732Z,98662.22
2022-11-01T23:18:14.875Z,98665.47
2022-11-01T23:20:44.994Z,98667.75
2022-11-01T23:23:18.199Z,98666.03
2022-11-01T23:25:46.485Z,98662.25
2022-11-01T23:28:14.895Z,98667.53
2022-11-01T23:30:44.019Z,98674.66
2022-11-01T23:33:13.754Z,98659.38
2022-11-01T23:35:42.462Z,98657.63
2022-11-01T23:38:19.948Z,98661.75
2022-11-01T23:40:48.164Z,98666.25
2022-11-01T23:43:25.417Z,98657.00
2022-11-01T23:45:53.945Z,98661.00
2022-11-01T23:48:23.829Z,98659.91
2022-11-01T23:50:54.324Z,98663.81
2022-11-01T23:53:30.712Z,98661.25
2022-11-01T23:56:00.320Z,98669.00
2022-11-01T23:58:31.389Z,98671.81
